createdAt,value
2023-10-26T00:00:00.200Z,7.5
2023-10-26T00:05:00.158Z,7.5
2023-10-26T00:10:00.155Z,7.5
2023-10-26T00:15:00.276Z,7.5
2023-10-26T00:20:00.176Z,7.5
2023-10-26T00:25:00.169Z,7.6
2023-10-26T00:30:00.210Z,7.6
2023-10-26T00:35:00.123Z,7.6
2023-10-26T00:40:00.182Z,7.6
2023-10-26T00:45:00.182Z,7.7
2023-10-26T00:50:00.141Z,7.8
2023-10-26T00:55:00.124Z,7.9
2023-10-26T01:00:00.137Z,7.9
2023-10-26T01:05:00.177Z,8.1
2023-10-26T01:10:00.159Z,8.1
2023-10-26T01:15:00.181Z,8.1
2023-10-26T01:20:00.143Z,8.2
2023-10-26T01:25:00.138Z,8.3
2023-10-26T01:30:00.153Z,8.3
2023-10-26T01:35:00.119Z,8.3
2023-10-26T01:40:00.161Z,8.3
2023-10-26T01:45:00.144Z,8.4
2023-10-26T01:50:00.136Z,8.4
2023-10-26T01:55:00.121Z,8.3
2023-10-26T02:00:00.145Z,8.3
2023-10-26T02:05:00.239Z,8.4
2023-10-26T02:10:00.148Z,8.4
2023-10-26T02:15:00.125Z,8.4
2023-10-26T02:20:00.141Z,8.4
2023-10-26T02:25:00.129Z,8.5
2023-10-26T02:30:00.221Z,8.5
2023-10-26T02:35:00.144Z,8.4
2023-10-26T02:40:00.182Z,8.4
2023-10-26T02:45:00.186Z,8.4
2023-10-26T02:50:00.198Z,8.4
2023-10-26T02:55:00.133Z,8.4
2023-10-26T03:00:00.186Z,8.4
2023-10-26T03:05:00.123Z,8.4
2023-10-26T03:10:00.291Z,8.4
2023-10-26T03:15:00.143Z,8.4
2023-10-26T03:20:00.188Z,8.5
2023-10-26T03:25:00.139Z,8.5
2023-10-26T03:30:00.242Z,8.6
2023-10-26T03:35:00.146Z,8.5
2023-10-26T03:40:00.207Z,8.6
2023-10-26T03:45:00.170Z,8.6
2023-10-26T03:50:00.152Z,8.6
2023-10-26T03:55:00.159Z,8.6
2023-10-26T04:00:00.231Z,8.6
2023-10-26T04:05:00.131Z,8.6
2023-10-26T04:10:00.141Z,8.6
2023-10-26T04:15:00.156Z,8.6
2023-10-26T04:20:00.129Z,8.6
2023-10-26T04:25:00.170Z,8.6
2023-10-26T04:30:00.175Z,8.6
2023-10-26T04:35:00.144Z,8.6
2023-10-26T04:40:00.781Z,8.6
2023-10-26T04:45:00.157Z,8.6
2023-10-26T04:50:00.164Z,8.6
2023-10-26T04:55:00.179Z,8.5
2023-10-26T05:00:00.186Z,8.5
2023-10-26T05:05:00.134Z,8.5
2023-10-26T05:10:00.132Z,8.6
2023-10-26T05:15:00.154Z,8.5
2023-10-26T05:20:00.176Z,8.6
2023-10-26T05:25:00.147Z,8.6
2023-10-26T05:30:00.187Z,8.7
2023-10-26T05:35:00.142Z,8.7
2023-10-26T05:40:00.178Z,8.7
2023-10-26T05:45:00.183Z,8.7
2023-10-26T05:50:00.148Z,8.7
2023-10-26T05:55:00.134Z,8.7
2023-10-26T06:00:00.192Z,8.7
2023-10-26T06:05:00.119Z,8.7
2023-10-26T06:10:00.129Z,8.7
2023-10-26T06:15:00.124Z,8.8
2023-10-26T06:20:00.124Z,8.8
2023-10-26T06:25:00.117Z,8.8
2023-10-26T06:30:00.131Z,8.8
2023-10-26T06:35:00.135Z,8.8
2023-10-26T06:40:00.129Z,8.8
2023-10-26T06:45:00.139Z,8.8
2023-10-26T06:50:00.115Z,8.8
2023-10-26T06:55:01.638Z,8.8
2023-10-26T07:00:00.127Z,8.8
2023-10-26T07:05:01.115Z,8.8
2023-10-26T07:10:00.129Z,8.9
2023-10-26T07:15:00.115Z,8.9
2023-10-26T07:20:00.142Z,8.9
2023-10-26T07:25:00.119Z,9
2023-10-26T07:30:00.132Z,9
2023-10-26T07:35:00.132Z,9
2023-10-26T07:40:18.485Z,9.1
2023-10-26T07:45:00.177Z,9.1
2023-10-26T07:50:00.128Z,9.1
2023-10-26T07:55:00.175Z,9.2
2023-10-26T08:00:00.141Z,9.2
2023-10-26T08:05:00.139Z,9.3
2023-10-26T08:10:00.120Z,9.3
2023-10-26T08:16:05.205Z,9.4
2023-10-26T08:20:01.072Z,9.5
2023-10-26T08:25:00.089Z,9.8
2023-10-26T08:30:00.156Z,10
2023-10-26T08:35:00.176Z,10.3
2023-10-26T08:40:00.116Z,10.1
2023-10-26T08:45:00.139Z,9.9
2023-10-26T08:50:15.171Z,10
2023-10-26T08:55:00.109Z,10
2023-10-26T09:00:00.108Z,10.2
2023-10-26T09:05:00.137Z,10
2023-10-26T09:10:00.117Z,10.2
2023-10-26T09:15:00.128Z,10.2
2023-10-26T09:20:00.198Z,10.5
2023-10-26T09:25:00.126Z,10.7
2023-10-26T09:35:00.184Z,10.6
2023-10-26T09:40:12.485Z,10.6
2023-10-26T09:45:00.123Z,10.5
2023-10-26T09:50:00.197Z,10.8
2023-10-26T09:55:00.120Z,10.8
2023-10-26T10:00:00.775Z,10.8
2023-10-26T10:05:00.103Z,11
2023-10-26T10:10:00.216Z,10.8
2023-10-26T10:15:10.564Z,10.8
2023-10-26T10:20:00.177Z,10.6
2023-10-26T10:25:00.768Z,10.8
2023-10-26T10:30:00.118Z,10.8
2023-10-26T10:35:00.126Z,10.7
2023-10-26T10:40:00.135Z,10.8
2023-10-26T10:45:00.116Z,11
2023-10-26T10:50:00.084Z,11
2023-10-26T10:55:05.148Z,10.8
2023-10-26T11:00:00.086Z,10.6
2023-10-26T11:05:09.582Z,10.6
2023-10-26T11:10:00.170Z,10.6
2023-10-26T11:15:00.118Z,10.6
2023-10-26T11:20:00.115Z,10.6
2023-10-26T11:25:00.148Z,10.7
2023-10-26T11:30:00.143Z,10.7
2023-10-26T11:35:00.116Z,10.7
2023-10-26T11:40:00.140Z,10.6
2023-10-26T11:45:00.111Z,10.6
2023-10-26T11:50:00.140Z,10.6
2023-10-26T11:55:00.132Z,10.7
2023-10-26T12:00:00.103Z,10.6
2023-10-26T12:05:00.134Z,10.8
2023-10-26T12:10:00.172Z,10.8
2023-10-26T12:15:00.112Z,10.7
2023-10-26T12:20:00.118Z,10.8
2023-10-26T12:25:00.163Z,10.6
2023-10-26T12:30:00.110Z,10.6
2023-10-26T12:35:00.117Z,10.6
2023-10-26T12:40:00.199Z,10.7
2023-10-26T12:45:00.136Z,10.7
2023-10-26T12:50:00.147Z,10.7
2023-10-26T12:55:00.200Z,10.6
2023-10-26T13:00:00.109Z,10.6
2023-10-26T13:05:00.123Z,10.6
2023-10-26T13:10:00.187Z,10.6
2023-10-26T13:15:04.750Z,10.5
2023-10-26T13:20:00.128Z,10.4
2023-10-26T13:25:00.137Z,10.5
2023-10-26T13:30:00.140Z,10.5
2023-10-26T13:35:00.106Z,10.3
2023-10-26T13:40:00.147Z,10.3
2023-10-26T13:45:00.118Z,10.4
2023-10-26T13:50:00.135Z,10.3
2023-10-26T13:55:00.149Z,10.3
2023-10-26T14:00:00.105Z,10.2
2023-10-26T14:05:00.126Z,10.2
2023-10-26T14:10:00.141Z,10.1
2023-10-26T14:15:00.105Z,10.1
2023-10-26T14:20:00.125Z,10.1
2023-10-26T14:25:00.177Z,10
2023-10-26T14:30:00.121Z,10
2023-10-26T14:35:00.106Z,9.8
2023-10-26T14:40:00.152Z,9.9
2023-10-26T14:45:00.136Z,9.7
2023-10-26T14:50:00.124Z,9.7
2023-10-26T14:55:00.141Z,9.5
2023-10-26T15:00:00.144Z,9.5
2023-10-26T15:05:00.143Z,9.3
2023-10-26T15:10:21.611Z,9.3
2023-10-26T15:15:00.105Z,9.4
2023-10-26T15:20:00.118Z,9.3
2023-10-26T15:25:00.200Z,9.4
2023-10-26T15:30:00.140Z,9.3
2023-10-26T15:35:00.175Z,9.4
2023-10-26T15:40:00.165Z,9.4
2023-10-26T15:45:00.170Z,9.3
2023-10-26T15:50:00.148Z,9.4
2023-10-26T15:55:00.227Z,9.4
2023-10-26T16:00:00.177Z,9.3
2023-10-26T16:05:00.209Z,9.2
2023-10-26T16:10:00.226Z,9.1
2023-10-26T16:15:00.258Z,9.1
2023-10-26T16:20:00.171Z,9.1
2023-10-26T16:25:00.206Z,9.1
2023-10-26T16:30:00.218Z,9
2023-10-26T16:35:00.131Z,9
2023-10-26T16:40:00.154Z,9
2023-10-26T16:45:00.127Z,9
2023-10-26T16:50:00.132Z,9
2023-10-26T16:55:00.138Z,8.9
2023-10-26T17:00:00.117Z,9
2023-10-26T17:05:00.115Z,8.9
2023-10-26T17:10:00.194Z,9
2023-10-26T17:15:00.128Z,9
2023-10-26T17:20:00.107Z,8.9
2023-10-26T17:25:00.216Z,8.9
2023-10-26T17:30:00.126Z,8.9
2023-10-26T17:35:00.126Z,8.8
2023-10-26T17:40:00.149Z,8.7
2023-10-26T17:45:00.107Z,8.6
2023-10-26T17:50:00.132Z,8.6
2023-10-26T17:55:02.849Z,8.6
2023-10-26T18:00:00.158Z,8.5
2023-10-26T18:05:00.168Z,8.5
2023-10-26T18:10:00.237Z,8.6
2023-10-26T18:15:00.132Z,8.6
2023-10-26T18:20:00.155Z,8.5
2023-10-26T18:25:00.146Z,8.5
2023-10-26T18:30:00.140Z,8.5
2023-10-26T18:35:00.117Z,8.5
2023-10-26T18:40:00.147Z,8.5
2023-10-26T18:45:00.123Z,8.5
2023-10-26T18:50:00.205Z,8.5
2023-10-26T18:55:00.148Z,8.5
2023-10-26T19:00:00.109Z,8.6
2023-10-26T19:05:00.125Z,8.6
2023-10-26T19:10:00.220Z,8.5
2023-10-26T19:15:00.118Z,8.5
2023-10-26T19:20:00.137Z,8.5
2023-10-26T19:25:00.168Z,8.4
2023-10-26T19:30:00.133Z,8.4
2023-10-26T19:35:00.127Z,8.4
2023-10-26T19:40:00.157Z,8.4
2023-10-26T19:45:00.126Z,8.4
2023-10-26T19:50:00.141Z,8.4
2023-10-26T19:55:00.151Z,8.4
2023-10-26T20:00:00.129Z,8.4
2023-10-26T20:05:00.144Z,8.3
2023-10-26T20:10:00.177Z,8.3
2023-10-26T20:15:00.108Z,8.3
2023-10-26T20:20:00.135Z,8.3
2023-10-26T20:25:00.131Z,8.3
2023-10-26T20:30:00.145Z,8.4
2023-10-26T20:35:00.106Z,8.4
2023-10-26T20:40:00.185Z,8.4
2023-10-26T20:45:00.153Z,8.4
2023-10-26T20:50:00.128Z,8.4
2023-10-26T20:55:00.130Z,8.3
2023-10-26T21:00:00.134Z,8.3
2023-10-26T21:05:00.152Z,8.3
2023-10-26T21:10:00.185Z,8.4
2023-10-26T21:15:00.151Z,8.4
2023-10-26T21:20:00.166Z,8.4
2023-10-26T21:25:00.217Z,8.4
2023-10-26T21:30:00.138Z,8.4
2023-10-26T21:35:00.135Z,8.4
2023-10-26T21:40:00.167Z,8.4
2023-10-26T21:45:00.147Z,8.4
2023-10-26T21:50:00.127Z,8.4
2023-10-26T21:55:00.204Z,8.4
2023-10-26T22:00:00.127Z,8.4
2023-10-26T22:05:00.164Z,8.4
2023-10-26T22:10:00.313Z,8.4
2023-10-26T22:15:00.125Z,8.4
2023-10-26T22:20:00.140Z,8.4
2023-10-26T22:25:00.139Z,8.4
2023-10-26T22:30:00.178Z,8.4
2023-10-26T22:35:00.152Z,8.4
2023-10-26T22:40:00.160Z,8.4
2023-10-26T22:45:00.141Z,8.4
2023-10-26T22:50:00.194Z,8.4
2023-10-26T22:55:01.029Z,8.4
2023-10-26T23:00:00.123Z,8.4
2023-10-26T23:05:00.137Z,8.4
2023-10-26T23:10:00.259Z,8.3
2023-10-26T23:15:00.148Z,8.3
2023-10-26T23:20:00.145Z,8.3
2023-10-26T23:25:00.314Z,8.3
2023-10-26T23:30:00.148Z,8.3
2023-10-26T23:35:00.213Z,8.3
2023-10-26T23:40:00.271Z,8.3
2023-10-26T23:45:00.206Z,8.3
2023-10-26T23:50:00.168Z,8.3
2023-10-26T23:55:00.160Z,8.3
